createdAt,value
2017-04-16T00:00:51.029Z,1009.522
2017-04-16T00:03:55.099Z,1009.534
2017-04-16T00:10:04.559Z,1009.542
2017-04-16T00:22:19.686Z,1009.545
2017-04-16T00:25:23.989Z,1009.560
2017-04-16T00:28:28.033Z,1009.606
2017-04-16T00:31:31.972Z,1009.621
2017-04-16T00:34:36.474Z,1009.592
2017-04-16T00:37:39.829Z,1009.612
2017-04-16T00:40:44.468Z,1009.646
2017-04-16T00:43:49.375Z,1009.670
2017-04-16T00:49:59.356Z,1009.666
2017-04-16T00:53:04.559Z,1009.715
2017-04-16T00:59:13.012Z,1009.647
2017-04-16T01:02:18.181Z,1009.642
2017-04-16T01:08:27.536Z,1009.531
2017-04-16T01:11:31.637Z,1009.562
2017-04-16T01:14:35.851Z,1009.588
2017-04-16T01:17:39.566Z,1009.606
2017-04-16T01:20:43.273Z,1009.691
2017-04-16T01:23:47.607Z,1009.671
2017-04-16T01:26:53.231Z,1009.593
2017-04-16T01:29:57.525Z,1009.660
2017-04-16T01:33:02.773Z,1009.612
2017-04-16T01:36:07.587Z,1009.557
2017-04-16T01:39:11.703Z,1009.533
2017-04-16T01:42:16.025Z,1009.510
2017-04-16T01:48:24.708Z,1009.498
2017-04-16T01:51:29.921Z,1009.490
2017-04-16T01:54:34.134Z,1009.518
2017-04-16T02:00:43.650Z,1009.489
2017-04-16T02:03:48.840Z,1009.526
2017-04-16T02:09:58.891Z,1009.464
2017-04-16T02:13:02.471Z,1009.458
2017-04-16T02:16:07.686Z,1009.520
2017-04-16T02:19:10.894Z,1009.476
2017-04-16T02:22:14.663Z,1009.492
2017-04-16T02:25:18.302Z,1009.477
2017-04-16T02:28:22.041Z,1009.449
2017-04-16T02:31:25.663Z,1009.434
2017-04-16T02:34:29.786Z,1009.408
2017-04-16T02:37:34.284Z,1009.400
2017-04-16T02:40:38.615Z,1009.390
2017-04-16T02:43:41.711Z,1009.416
2017-04-16T02:46:45.675Z,1009.429
2017-04-16T02:49:49.068Z,1009.444
2017-04-16T02:52:54.364Z,1009.480
2017-04-16T02:55:58.190Z,1009.554
2017-04-16T02:59:02.022Z,1009.575
2017-04-16T03:02:06.357Z,1009.567
2017-04-16T03:08:14.959Z,1009.574
2017-04-16T03:11:18.447Z,1009.611
2017-04-16T03:14:23.451Z,1009.716
2017-04-16T03:17:27.681Z,1009.764
2017-04-16T03:20:32.551Z,1009.753
2017-04-16T03:23:35.883Z,1009.798
2017-04-16T03:29:44.660Z,1009.803
2017-04-16T03:32:49.511Z,1009.869
2017-04-16T03:35:54.609Z,1009.939
2017-04-16T03:38:58.353Z,1009.931
2017-04-16T03:42:03.349Z,1009.952
2017-04-16T03:45:07.567Z,1010.060
2017-04-16T03:48:12.079Z,1010.113
2017-04-16T03:51:17.034Z,1010.156
2017-04-16T03:57:26.451Z,1010.328
2017-04-16T04:00:30.453Z,1010.381
2017-04-16T04:09:45.169Z,1010.509
2017-04-16T04:12:48.775Z,1010.591
2017-04-16T04:15:52.595Z,1010.664
2017-04-16T04:18:58.028Z,1010.742
2017-04-16T04:25:06.609Z,1010.766
2017-04-16T04:28:09.625Z,1010.793
2017-04-16T04:31:13.487Z,1010.862
2017-04-16T04:34:17.205Z,1010.965
2017-04-16T04:37:21.949Z,1011.035
2017-04-16T04:40:26.120Z,1011.072
2017-04-16T04:43:30.328Z,1011.127
2017-04-16T04:46:34.225Z,1011.116
2017-04-16T04:49:39.363Z,1011.174
2017-04-16T04:52:43.457Z,1011.221
2017-04-16T04:58:51.855Z,1011.354
2017-04-16T05:01:56.195Z,1011.417
2017-04-16T05:05:01.592Z,1011.471
2017-04-16T05:08:05.580Z,1011.509
2017-04-16T05:11:09.973Z,1011.587
2017-04-16T05:14:13.677Z,1011.695
2017-04-16T05:17:18.541Z,1011.767
2017-04-16T05:23:28.539Z,1011.862
2017-04-16T05:26:32.228Z,1011.958
2017-04-16T05:32:41.668Z,1012.073
2017-04-16T05:35:45.731Z,1012.178
2017-04-16T05:38:50.854Z,1012.262
2017-04-16T05:45:00.208Z,1012.401
2017-04-16T05:48:04.949Z,1012.458
2017-04-16T05:51:08.535Z,1012.531
2017-04-16T05:54:12.041Z,1012.614
2017-04-16T06:00:21.456Z,1012.737
2017-04-16T06:03:26.697Z,1012.785
2017-04-16T06:09:36.830Z,1012.859
2017-04-16T06:12:40.783Z,1012.914
2017-04-16T06:15:45.405Z,1012.934
2017-04-16T06:18:49.432Z,1012.983
2017-04-16T06:21:53.630Z,1012.989
2017-04-16T06:24:57.716Z,1013.014
2017-04-16T06:28:02.932Z,1013.028
2017-04-16T06:31:06.729Z,1013.103
2017-04-16T06:34:10.913Z,1013.160
2017-04-16T06:37:14.821Z,1013.227
2017-04-16T06:40:19.838Z,1013.243
2017-04-16T06:43:23.783Z,1013.290
2017-04-16T06:46:29.337Z,1013.364
2017-04-16T06:49:33.281Z,1013.358
2017-04-16T06:52:37.735Z,1013.390
2017-04-16T06:55:40.994Z,1013.449
2017-04-16T06:58:44.783Z,1013.518
2017-04-16T07:01:49.540Z,1013.547
2017-04-16T07:07:59.050Z,1013.557
2017-04-16T07:11:04.134Z,1013.594
2017-04-16T07:14:08.100Z,1013.541
2017-04-16T07:17:13.453Z,1013.521
2017-04-16T07:20:17.307Z,1013.576
2017-04-16T07:23:22.581Z,1013.569
2017-04-16T07:26:26.988Z,1013.613
2017-04-16T07:29:31.023Z,1013.657
2017-04-16T07:32:34.839Z,1013.662
2017-04-16T07:38:44.157Z,1013.752
2017-04-16T07:41:49.379Z,1013.741
2017-04-16T07:44:53.097Z,1013.808
2017-04-16T07:47:56.473Z,1013.842
2017-04-16T07:51:00.814Z,1013.878
2017-04-16T07:54:04.400Z,1013.907
2017-04-16T07:57:08.092Z,1013.945
2017-04-16T08:03:17.100Z,1013.983
2017-04-16T08:06:21.261Z,1014.025
2017-04-16T08:09:25.178Z,1014.104
2017-04-16T08:12:28.250Z,1014.164
2017-04-16T08:15:33.071Z,1014.217
2017-04-16T08:18:36.606Z,1014.246
2017-04-16T08:21:40.188Z,1014.319
2017-04-16T08:24:45.582Z,1014.380
2017-04-16T08:30:55.254Z,1014.469
2017-04-16T08:33:59.821Z,1014.490
2017-04-16T08:37:05.137Z,1014.545
2017-04-16T08:43:12.590Z,1014.576
2017-04-16T08:46:16.890Z,1014.587
2017-04-16T08:49:22.366Z,1014.574
2017-04-16T08:55:32.781Z,1014.603
2017-04-16T08:58:36.908Z,1014.612
2017-04-16T09:01:40.967Z,1014.618
2017-04-16T09:04:46.137Z,1014.603
2017-04-16T09:07:50.441Z,1014.640
2017-04-16T09:10:55.926Z,1014.661
2017-04-16T09:14:00.755Z,1014.633
2017-04-16T09:17:05.169Z,1014.569
2017-04-16T09:20:10.463Z,1014.599
2017-04-16T09:26:20.628Z,1014.661
2017-04-16T09:32:31.774Z,1014.696
2017-04-16T09:41:46.905Z,1014.746
2017-04-16T09:44:50.581Z,1014.761
2017-04-16T09:47:55.667Z,1014.754
2017-04-16T09:50:59.487Z,1014.778
2017-04-16T09:54:04.044Z,1014.805
2017-04-16T09:57:08.556Z,1014.866
2017-04-16T10:00:12.965Z,1014.912
2017-04-16T10:03:17.380Z,1014.988
2017-04-16T10:06:22.858Z,1014.977
2017-04-16T10:09:26.807Z,1014.998
2017-04-16T10:12:28.496Z,1015.046
2017-04-16T10:18:30.890Z,1015.079
2017-04-16T10:21:41.500Z,1015.095
2017-04-16T10:24:46.624Z,1015.066
2017-04-16T10:27:51.094Z,1015.095
2017-04-16T10:30:56.493Z,1015.077
2017-04-16T10:34:00.915Z,1015.091
2017-04-16T10:37:06.600Z,1015.127
2017-04-16T10:40:10.065Z,1015.075
2017-04-16T10:43:15.259Z,1015.100
2017-04-16T10:46:19.668Z,1015.101
2017-04-16T10:49:23.995Z,1015.081
2017-04-16T10:52:28.073Z,1015.067
2017-04-16T10:55:32.468Z,1015.039
2017-04-16T10:58:37.867Z,1015.030
2017-04-16T11:01:36.389Z,1014.956
2017-04-16T11:04:41.509Z,1014.993
2017-04-16T11:07:52.256Z,1014.986
2017-04-16T11:10:56.233Z,1015.019
2017-04-16T11:14:00.886Z,1015.065
2017-04-16T11:17:05.205Z,1015.045
2017-04-16T11:20:10.656Z,1015.085
2017-04-16T11:23:15.797Z,1015.118
2017-04-16T11:26:20.128Z,1015.058
2017-04-16T11:32:31.086Z,1015.079
2017-04-16T11:35:35.505Z,1015.146
2017-04-16T11:38:40.925Z,1015.221
2017-04-16T11:41:44.922Z,1015.282
2017-04-16T11:44:42.976Z,1015.305
2017-04-16T11:47:54.198Z,1015.291
2017-04-16T11:50:58.502Z,1015.259
2017-04-16T11:54:02.709Z,1015.269
2017-04-16T11:57:08.581Z,1015.274
2017-04-16T12:00:12.706Z,1015.279
2017-04-16T12:03:18.590Z,1015.285
2017-04-16T12:06:22.874Z,1015.261
2017-04-16T12:09:26.900Z,1015.261
2017-04-16T12:12:30.626Z,1015.273
2017-04-16T12:15:34.882Z,1015.245
2017-04-16T12:21:45.898Z,1015.148
2017-04-16T12:24:50.021Z,1015.153
2017-04-16T12:27:55.858Z,1015.143
2017-04-16T12:31:00.429Z,1015.177
2017-04-16T12:34:06.175Z,1015.189
2017-04-16T12:37:10.641Z,1015.254
2017-04-16T12:40:14.823Z,1015.317
2017-04-16T12:43:18.976Z,1015.307
2017-04-16T12:46:23.454Z,1015.333
2017-04-16T12:49:27.439Z,1015.373
2017-04-16T12:52:32.080Z,1015.400
2017-04-16T12:55:37.834Z,1015.380
2017-04-16T12:58:41.964Z,1015.397
2017-04-16T13:01:46.464Z,1015.274
2017-04-16T13:04:52.416Z,1015.158
2017-04-16T13:07:58.157Z,1015.084
2017-04-16T13:11:03.928Z,1015.027
2017-04-16T13:14:08.812Z,1014.990
2017-04-16T13:20:20.101Z,1014.948
2017-04-16T13:23:25.035Z,1014.875
2017-04-16T13:32:39.630Z,1014.859
2017-04-16T13:35:44.408Z,1014.807
2017-04-16T13:38:49.245Z,1014.890
2017-04-16T13:41:53.820Z,1014.894
2017-04-16T13:44:58.428Z,1014.818
2017-04-16T13:48:03.441Z,1014.871
2017-04-16T13:51:08.883Z,1014.897
2017-04-16T13:54:13.817Z,1014.954
2017-04-16T13:57:18.335Z,1014.964
2017-04-16T14:00:22.929Z,1014.966
2017-04-16T14:03:27.947Z,1014.960
2017-04-16T14:06:32.662Z,1014.852
2017-04-16T14:09:37.396Z,1014.842
2017-04-16T14:12:41.559Z,1014.902
2017-04-16T14:18:53.117Z,1014.965
2017-04-16T14:21:57.626Z,1015.008
2017-04-16T14:25:02.667Z,1015.022
2017-04-16T14:31:12.105Z,1015.024
2017-04-16T14:34:10.831Z,1015.062
2017-04-16T14:37:16.300Z,1015.103
2017-04-16T14:40:27.900Z,1015.103
2017-04-16T14:43:32.406Z,1015.132
2017-04-16T14:46:31.091Z,1015.129
2017-04-16T14:49:36.109Z,1015.142
2017-04-16T14:52:47.497Z,1015.119
2017-04-16T14:55:51.730Z,1015.092
2017-04-16T15:02:03.413Z,1015.037
2017-04-16T15:05:09.382Z,1014.978
2017-04-16T15:08:14.819Z,1015.029
2017-04-16T15:11:19.854Z,1015.026
2017-04-16T15:14:24.503Z,1015.014
2017-04-16T15:17:28.801Z,1015.029
2017-04-16T15:20:33.516Z,1015.015
2017-04-16T15:23:37.899Z,1015.039
2017-04-16T15:26:42.268Z,1015.020
2017-04-16T15:29:46.483Z,1015.023
2017-04-16T15:32:51.497Z,1015.009
2017-04-16T15:35:55.901Z,1014.978
2017-04-16T15:39:01.662Z,1014.976
2017-04-16T15:42:06.317Z,1014.968
2017-04-16T15:48:16.786Z,1014.996
2017-04-16T15:51:21.401Z,1014.941
2017-04-16T15:54:26.182Z,1014.912
2017-04-16T15:57:31.127Z,1014.917
2017-04-16T16:00:35.817Z,1014.935
2017-04-16T16:03:40.065Z,1014.933
2017-04-16T16:06:45.523Z,1014.983
2017-04-16T16:09:50.136Z,1014.968
2017-04-16T16:16:00.258Z,1014.931
2017-04-16T16:19:04.561Z,1014.981
2017-04-16T16:22:09.045Z,1014.943
2017-04-16T16:25:14.764Z,1014.977
2017-04-16T16:31:23.811Z,1014.859
2017-04-16T16:34:28.239Z,1014.805
2017-04-16T16:37:33.198Z,1014.819
2017-04-16T16:40:37.676Z,1014.828
2017-04-16T16:43:43.144Z,1014.819
2017-04-16T16:46:47.549Z,1014.834
2017-04-16T16:49:53.452Z,1014.866
2017-04-16T16:52:57.812Z,1014.871
2017-04-16T16:56:02.524Z,1014.861
2017-04-16T16:59:08.067Z,1014.898
2017-04-16T17:02:13.779Z,1014.881
2017-04-16T17:05:18.555Z,1014.882
2017-04-16T17:08:23.332Z,1014.888
2017-04-16T17:11:28.004Z,1014.886
2017-04-16T17:17:38.927Z,1014.818
2017-04-16T17:20:43.237Z,1014.833
2017-04-16T17:23:48.187Z,1014.890
2017-04-16T17:26:52.687Z,1014.975
2017-04-16T17:29:56.698Z,1015.006
2017-04-16T17:33:00.860Z,1015.020
2017-04-16T17:36:05.421Z,1015.021
2017-04-16T17:39:10.865Z,1014.988
2017-04-16T17:42:16.244Z,1014.945
2017-04-16T17:45:20.801Z,1014.941
2017-04-16T17:48:24.805Z,1014.957
2017-04-16T17:51:29.335Z,1014.970
2017-04-16T17:54:34.289Z,1014.990
2017-04-16T17:57:38.396Z,1015.009
2017-04-16T18:00:43.754Z,1015.046
2017-04-16T18:06:55.148Z,1015.022
2017-04-16T18:09:59.575Z,1015.011
2017-04-16T18:13:04.553Z,1015.011
2017-04-16T18:16:09.058Z,1015.057
2017-04-16T18:19:13.181Z,1015.078
2017-04-16T18:22:17.355Z,1015.082
2017-04-16T18:25:21.652Z,1015.080
2017-04-16T18:28:26.462Z,1015.067
2017-04-16T18:31:30.570Z,1015.110
2017-04-16T18:34:36.129Z,1015.104
2017-04-16T18:43:50.464Z,1015.179
2017-04-16T18:46:55.069Z,1015.220
2017-04-16T18:50:00.425Z,1015.252
2017-04-16T18:56:09.190Z,1015.262
2017-04-16T18:59:13.519Z,1015.251
2017-04-16T19:02:18.655Z,1015.265
2017-04-16T19:05:24.032Z,1015.311
2017-04-16T19:08:29.232Z,1015.328
2017-04-16T19:14:40.407Z,1015.380
2017-04-16T19:17:44.435Z,1015.352
2017-04-16T19:20:49.452Z,1015.332
2017-04-16T19:23:53.778Z,1015.326
2017-04-16T19:26:59.563Z,1015.302
2017-04-16T19:30:03.459Z,1015.323
2017-04-16T19:33:07.889Z,1015.273
2017-04-16T19:36:11.908Z,1015.257
2017-04-16T19:39:16.585Z,1015.291
2017-04-16T19:42:20.369Z,1015.293
2017-04-16T19:45:25.402Z,1015.312
2017-04-16T19:48:30.424Z,1015.363
2017-04-16T19:51:34.198Z,1015.398
2017-04-16T19:54:35.884Z,1015.420
2017-04-16T19:57:40.543Z,1015.451
2017-04-16T20:00:45.896Z,1015.487
2017-04-16T20:03:50.298Z,1015.499
2017-04-16T20:06:55.774Z,1015.546
2017-04-16T20:10:00.009Z,1015.505
2017-04-16T20:13:04.336Z,1015.505
2017-04-16T20:16:08.510Z,1015.527
2017-04-16T20:19:12.522Z,1015.509
2017-04-16T20:22:17.829Z,1015.564
2017-04-16T20:25:22.262Z,1015.641
2017-04-16T20:28:26.425Z,1015.632
2017-04-16T20:31:30.192Z,1015.633
2017-04-16T20:34:34.902Z,1015.721
2017-04-16T20:40:44.774Z,1015.832
2017-04-16T20:43:48.618Z,1015.807
2017-04-16T20:46:54.101Z,1015.741
2017-04-16T20:49:58.054Z,1015.656
2017-04-16T20:53:02.635Z,1015.588
2017-04-16T20:56:07.775Z,1015.548
2017-04-16T20:59:12.081Z,1015.550
2017-04-16T21:05:21.891Z,1015.559
2017-04-16T21:08:25.983Z,1015.490
2017-04-16T21:11:30.488Z,1015.459
2017-04-16T21:14:35.968Z,1015.448
2017-04-16T21:20:45.390Z,1015.466
2017-04-16T21:23:49.858Z,1015.435
2017-04-16T21:33:03.353Z,1015.330
2017-04-16T21:36:08.553Z,1015.337
2017-04-16T21:39:14.055Z,1015.253
2017-04-16T21:45:22.484Z,1015.308
2017-04-16T21:48:26.538Z,1015.339
2017-04-16T21:54:35.759Z,1015.367
2017-04-16T22:00:45.194Z,1015.262
2017-04-16T22:03:49.638Z,1015.252
2017-04-16T22:06:54.203Z,1015.254
2017-04-16T22:09:58.326Z,1015.247
2017-04-16T22:16:08.674Z,1015.264
2017-04-16T22:19:12.908Z,1015.260
2017-04-16T22:22:17.095Z,1015.260
2017-04-16T22:28:26.579Z,1015.140
2017-04-16T22:31:32.073Z,1015.162
2017-04-16T22:34:36.852Z,1015.182
2017-04-16T22:37:41.481Z,1015.191
2017-04-16T22:40:46.294Z,1015.129
2017-04-16T22:43:50.939Z,1015.075
2017-04-16T22:46:54.853Z,1015.078
2017-04-16T22:53:04.659Z,1015.022
2017-04-16T22:56:08.465Z,1015.013
2017-04-16T22:59:13.079Z,1014.962
2017-04-16T23:02:17.012Z,1014.939
2017-04-16T23:05:21.494Z,1014.879
2017-04-16T23:08:26.822Z,1014.909
2017-04-16T23:11:31.163Z,1014.890
2017-04-16T23:17:40.673Z,1014.861
2017-04-16T23:20:44.773Z,1014.855
2017-04-16T23:23:49.335Z,1014.837
2017-04-16T23:26:53.475Z,1014.796
2017-04-16T23:29:58.697Z,1014.846
2017-04-16T23:33:02.958Z,1014.880
2017-04-16T23:36:07.951Z,1014.843
2017-04-16T23:42:18.596Z,1014.775
2017-04-16T23:45:23.977Z,1014.820
2017-04-16T23:48:29.147Z,1014.816
2017-04-16T23:51:33.816Z,1014.730
2017-04-16T23:57:42.215Z,1014.680
